sensor_id;sensor_type;location;lat;lon;timestamp;P1;durP1;ratioP1;P2;durP2;ratioP2
35907;SDS011;22003;50.320;8.054;2022-07-18T04:02:13;3.25;;;1.30;;
35907;SDS011;22003;50.320;8.054;2022-07-18T04:04:38;1.92;;;0.98;;
35907;SDS011;22003;50.320;8.054;2022-07-18T04:07:03;3.53;;;1.60;;
35907;SDS011;22003;50.320;8.054;2022-07-18T04:09:29;4.88;;;1.45;;
35907;SDS011;22003;50.320;8.054;2022-07-18T04:11:54;2.78;;;1.35;;
35907;SDS011;22003;50.320;8.054;2022-07-18T04:14:20;2.70;;;1.50;;
35907;SDS011;22003;50.320;8.054;2022-07-18T04:16:47;2.17;;;1.33;;
35907;SDS011;22003;50.320;8.054;2022-07-18T04:19:13;3.95;;;1.45;;
35907;SDS011;22003;50.320;8.054;2022-07-18T04:21:38;6.10;;;1.63;;
35907;SDS011;22003;50.320;8.054;2022-07-18T04:24:03;3.45;;;1.13;;
35907;SDS011;22003;50.320;8.054;2022-07-18T04:26:29;3.00;;;1.58;;
35907;SDS011;22003;50.320;8.054;2022-07-18T04:28:54;5.55;;;1.67;;
35907;SDS011;22003;50.320;8.054;2022-07-18T04:31:19;9.00;;;2.25;;
35907;SDS011;22003;50.320;8.054;2022-07-18T04:33:45;6.13;;;1.55;;
35907;SDS011;22003;50.320;8.054;2022-07-18T04:36:10;6.68;;;1.50;;
35907;SDS011;22003;50.320;8.054;2022-07-18T04:38:35;6.05;;;1.55;;
35907;SDS011;22003;50.320;8.054;2022-07-18T04:41:02;6.00;;;2.40;;
35907;SDS011;22003;50.320;8.054;2022-07-18T04:43:31;11.88;;;2.03;;
35907;SDS011;22003;50.320;8.054;2022-07-18T04:45:56;12.45;;;2.03;;
35907;SDS011;22003;50.320;8.054;2022-07-18T04:48:22;7.53;;;1.80;;
35907;SDS011;22003;50.320;8.054;2022-07-18T04:50:47;6.13;;;1.50;;
35907;SDS011;22003;50.320;8.054;2022-07-18T04:53:12;7.90;;;1.35;;
35907;SDS011;22003;50.320;8.054;2022-07-18T04:55:38;11.43;;;1.65;;
35907;SDS011;22003;50.320;8.054;2022-07-18T04:58:03;10.73;;;1.73;;
35907;SDS011;22003;50.320;8.054;2022-07-18T05:00:28;11.15;;;2.30;;
35907;SDS011;22003;50.320;8.054;2022-07-18T05:02:54;14.60;;;2.45;;
35907;SDS011;22003;50.320;8.054;2022-07-18T05:05:21;15.98;;;1.80;;
35907;SDS011;22003;50.320;8.054;2022-07-18T05:07:48;10.75;;;1.83;;
35907;SDS011;22003;50.320;8.054;2022-07-18T05:10:14;10.82;;;2.00;;
35907;SDS011;22003;50.320;8.054;2022-07-18T05:12:42;10.60;;;1.70;;
35907;SDS011;22003;50.320;8.054;2022-07-18T05:15:09;6.27;;;1.87;;
35907;SDS011;22003;50.320;8.054;2022-07-18T05:17:36;9.57;;;2.13;;
35907;SDS011;22003;50.320;8.054;2022-07-18T05:20:02;11.50;;;2.53;;
35907;SDS011;22003;50.320;8.054;2022-07-18T05:22:29;8.50;;;1.83;;
35907;SDS011;22003;50.320;8.054;2022-07-18T05:24:54;18.23;;;3.45;;
35907;SDS011;22003;50.320;8.054;2022-07-18T05:27:20;12.02;;;2.40;;
35907;SDS011;22003;50.320;8.054;2022-07-18T05:29:45;18.98;;;3.05;;
35907;SDS011;22003;50.320;8.054;2022-07-18T05:32:10;13.32;;;2.60;;
35907;SDS011;22003;50.320;8.054;2022-07-18T05:34:37;23.05;;;2.88;;
35907;SDS011;22003;50.320;8.054;2022-07-18T05:37:02;24.50;;;3.75;;
35907;SDS011;22003;50.320;8.054;2022-07-18T05:39:28;15.90;;;3.10;;
35907;SDS011;22003;50.320;8.054;2022-07-18T05:41:53;16.60;;;3.38;;
35907;SDS011;22003;50.320;8.054;2022-07-18T05:44:18;23.10;;;3.40;;
35907;SDS011;22003;50.320;8.054;2022-07-18T05:46:47;31.90;;;4.18;;
35907;SDS011;22003;50.320;8.054;2022-07-18T05:49:13;21.42;;;3.25;;
35907;SDS011;22003;50.320;8.054;2022-07-18T05:51:39;11.05;;;2.95;;
35907;SDS011;22003;50.320;8.054;2022-07-18T05:54:05;24.52;;;3.15;;
35907;SDS011;22003;50.320;8.054;2022-07-18T05:56:30;17.02;;;3.28;;
35907;SDS011;22003;50.320;8.054;2022-07-18T05:58:56;13.52;;;2.33;;
35907;SDS011;22003;50.320;8.054;2022-07-18T06:01:22;8.10;;;2.08;;
35907;SDS011;22003;50.320;8.054;2022-07-18T06:03:47;12.63;;;2.22;;
35907;SDS011;22003;50.320;8.054;2022-07-18T06:06:13;6.03;;;1.88;;
35907;SDS011;22003;50.320;8.054;2022-07-18T06:08:39;5.72;;;1.90;;
35907;SDS011;22003;50.320;8.054;2022-07-18T06:11:05;6.57;;;1.63;;
35907;SDS011;22003;50.320;8.054;2022-07-18T06:13:33;17.20;;;2.08;;
35907;SDS011;22003;50.320;8.054;2022-07-18T06:15:59;9.15;;;2.45;;
35907;SDS011;22003;50.320;8.054;2022-07-18T06:18:24;8.23;;;1.75;;
35907;SDS011;22003;50.320;8.054;2022-07-18T06:20:49;4.97;;;1.60;;
35907;SDS011;22003;50.320;8.054;2022-07-18T06:23:15;9.48;;;1.48;;
35907;SDS011;22003;50.320;8.054;2022-07-18T06:25:40;12.32;;;2.03;;
35907;SDS011;22003;50.320;8.054;2022-07-18T06:28:05;9.65;;;1.55;;
35907;SDS011;22003;50.320;8.054;2022-07-18T06:30:30;6.53;;;1.45;;
35907;SDS011;22003;50.320;8.054;2022-07-18T06:32:56;4.70;;;1.55;;
35907;SDS011;22003;50.320;8.054;2022-07-18T06:35:21;6.07;;;1.73;;
35907;SDS011;22003;50.320;8.054;2022-07-18T06:37:46;6.95;;;1.40;;
35907;SDS011;22003;50.320;8.054;2022-07-18T06:40:12;4.60;;;1.40;;
35907;SDS011;22003;50.320;8.054;2022-07-18T06:42:37;7.78;;;1.40;;
35907;SDS011;22003;50.320;8.054;2022-07-18T06:45:03;10.65;;;1.70;;
35907;SDS011;22003;50.320;8.054;2022-07-18T06:47:30;12.60;;;1.83;;
35907;SDS011;22003;50.320;8.054;2022-07-18T06:49:55;2.40;;;1.20;;
35907;SDS011;22003;50.320;8.054;2022-07-18T06:52:21;3.17;;;1.23;;
35907;SDS011;22003;50.320;8.054;2022-07-18T06:54:46;5.22;;;1.40;;
35907;SDS011;22003;50.320;8.054;2022-07-18T06:57:11;3.83;;;1.42;;
35907;SDS011;22003;50.320;8.054;2022-07-18T06:59:37;2.42;;;1.15;;
35907;SDS011;22003;50.320;8.054;2022-07-18T07:02:02;5.20;;;1.80;;
35907;SDS011;22003;50.320;8.054;2022-07-18T07:04:28;4.65;;;1.45;;
35907;SDS011;22003;50.320;8.054;2022-07-18T07:06:53;7.60;;;1.48;;
35907;SDS011;22003;50.320;8.054;2022-07-18T07:09:18;7.30;;;1.73;;
35907;SDS011;22003;50.320;8.054;2022-07-18T07:11:44;3.33;;;1.33;;
35907;SDS011;22003;50.320;8.054;2022-07-18T07:14:09;2.55;;;1.30;;
35907;SDS011;22003;50.320;8.054;2022-07-18T07:16:34;3.30;;;1.20;;
35907;SDS011;22003;50.320;8.054;2022-07-18T07:19:00;5.13;;;1.55;;
35907;SDS011;22003;50.320;8.054;2022-07-18T07:21:25;3.90;;;1.30;;
35907;SDS011;22003;50.320;8.054;2022-07-18T07:23:50;7.88;;;1.77;;
35907;SDS011;22003;50.320;8.054;2022-07-18T07:26:16;3.78;;;1.15;;
35907;SDS011;22003;50.320;8.054;2022-07-18T07:28:41;2.90;;;1.25;;
35907;SDS011;22003;50.320;8.054;2022-07-18T07:31:07;2.63;;;1.13;;
35907;SDS011;22003;50.320;8.054;2022-07-18T07:33:32;2.63;;;1.08;;
35907;SDS011;22003;50.320;8.054;2022-07-18T07:35:59;6.28;;;1.17;;
35907;SDS011;22003;50.320;8.054;2022-07-18T07:38:25;2.30;;;0.93;;
35907;SDS011;22003;50.320;8.054;2022-07-18T07:40:53;2.70;;;1.60;;
35907;SDS011;22003;50.320;8.054;2022-07-18T07:43:19;3.38;;;0.95;;
35907;SDS011;22003;50.320;8.054;2022-07-18T07:45:46;2.97;;;1.00;;
35907;SDS011;22003;50.320;8.054;2022-07-18T07:48:13;4.13;;;0.88;;
35907;SDS011;22003;50.320;8.054;2022-07-18T07:50:40;3.70;;;1.10;;
35907;SDS011;22003;50.320;8.054;2022-07-18T07:53:05;3.55;;;1.02;;
35907;SDS011;22003;50.320;8.054;2022-07-18T07:55:30;3.55;;;1.27;;
35907;SDS011;22003;50.320;8.054;2022-07-18T07:57:56;3.80;;;1.35;;
35907;SDS011;22003;50.320;8.054;2022-07-18T08:00:21;4.25;;;1.45;;
35907;SDS011;22003;50.320;8.054;2022-07-18T08:02:51;6.97;;;1.38;;
35907;SDS011;22003;50.320;8.054;2022-07-18T08:05:18;4.93;;;1.30;;
35907;SDS011;22003;50.320;8.054;2022-07-18T08:07:43;2.05;;;0.95;;
35907;SDS011;22003;50.320;8.054;2022-07-18T08:10:09;2.42;;;1.27;;
35907;SDS011;22003;50.320;8.054;2022-07-18T08:12:34;1.65;;;0.82;;
35907;SDS011;22003;50.320;8.054;2022-07-18T08:14:59;2.50;;;1.40;;
35907;SDS011;22003;50.320;8.054;2022-07-18T08:17:25;3.38;;;1.30;;
35907;SDS011;22003;50.320;8.054;2022-07-18T08:19:50;3.03;;;1.10;;
35907;SDS011;22003;50.320;8.054;2022-07-18T08:22:15;8.90;;;1.30;;
35907;SDS011;22003;50.320;8.054;2022-07-18T08:24:42;5.03;;;1.73;;
35907;SDS011;22003;50.320;8.054;2022-07-18T08:27:08;10.15;;;1.30;;
35907;SDS011;22003;50.320;8.054;2022-07-18T08:29:34;4.50;;;1.20;;
35907;SDS011;22003;50.320;8.054;2022-07-18T08:31:59;5.07;;;0.93;;
35907;SDS011;22003;50.320;8.054;2022-07-18T08:34:24;6.65;;;1.02;;
35907;SDS011;22003;50.320;8.054;2022-07-18T08:36:50;5.97;;;1.60;;
35907;SDS011;22003;50.320;8.054;2022-07-18T08:39:15;2.17;;;0.88;;
35907;SDS011;22003;50.320;8.054;2022-07-18T08:41:41;3.25;;;1.25;;
35907;SDS011;22003;50.320;8.054;2022-07-18T08:44:11;6.55;;;1.42;;
35907;SDS011;22003;50.320;8.054;2022-07-18T08:46:38;8.40;;;1.30;;
35907;SDS011;22003;50.320;8.054;2022-07-18T08:49:04;6.47;;;1.45;;
35907;SDS011;22003;50.320;8.054;2022-07-18T08:51:31;3.87;;;1.20;;
35907;SDS011;22003;50.320;8.054;2022-07-18T08:53:57;3.13;;;1.27;;
35907;SDS011;22003;50.320;8.054;2022-07-18T08:56:24;6.72;;;1.33;;
35907;SDS011;22003;50.320;8.054;2022-07-18T08:58:50;2.00;;;1.00;;
35907;SDS011;22003;50.320;8.054;2022-07-18T09:01:15;3.33;;;1.10;;
35907;SDS011;22003;50.320;8.054;2022-07-18T09:03:40;3.65;;;1.45;;
35907;SDS011;22003;50.320;8.054;2022-07-18T09:08:32;4.33;;;1.33;;
35907;SDS011;22003;50.320;8.054;2022-07-18T09:10:59;2.25;;;1.30;;
35907;SDS011;22003;50.320;8.054;2022-07-18T09:13:34;2.20;;;1.20;;
35907;SDS011;22003;50.320;8.054;2022-07-18T09:16:05;4.20;;;1.00;;
35907;SDS011;22003;50.320;8.054;2022-07-18T09:18:36;7.20;;;1.40;;
35907;SDS011;22003;50.320;8.054;2022-07-18T09:23:50;2.22;;;1.17;;
35907;SDS011;22003;50.320;8.054;2022-07-18T09:29:00;7.57;;;0.95;;
35907;SDS011;22003;50.320;8.054;2022-07-18T09:31:26;2.95;;;1.10;;
35907;SDS011;22003;50.320;8.054;2022-07-18T09:33:56;2.15;;;1.20;;
35907;SDS011;22003;50.320;8.054;2022-07-18T09:36:26;2.20;;;1.15;;
35907;SDS011;22003;50.320;8.054;2022-07-18T09:38:53;5.75;;;1.20;;
35907;SDS011;22003;50.320;8.054;2022-07-18T09:41:23;2.00;;;1.08;;
35907;SDS011;22003;50.320;8.054;2022-07-18T09:43:50;2.88;;;1.10;;
35907;SDS011;22003;50.320;8.054;2022-07-18T09:46:15;1.15;;;1.00;;
35907;SDS011;22003;50.320;8.054;2022-07-18T09:48:40;2.03;;;1.00;;
35907;SDS011;22003;50.320;8.054;2022-07-18T09:51:06;1.65;;;1.10;;
35907;SDS011;22003;50.320;8.054;2022-07-18T09:53:36;4.25;;;1.00;;
35907;SDS011;22003;50.320;8.054;2022-07-18T09:56:04;4.25;;;1.20;;
35907;SDS011;22003;50.320;8.054;2022-07-18T09:58:32;4.20;;;1.10;;
35907;SDS011;22003;50.320;8.054;2022-07-18T10:01:27;3.05;;;1.38;;
35907;SDS011;22003;50.320;8.054;2022-07-18T10:03:53;2.85;;;1.20;;
35907;SDS011;22003;50.320;8.054;2022-07-18T10:06:19;3.25;;;0.95;;
35907;SDS011;22003;50.320;8.054;2022-07-18T10:08:44;3.28;;;1.25;;
35907;SDS011;22003;50.320;8.054;2022-07-18T10:11:10;2.03;;;1.00;;
35907;SDS011;22003;50.320;8.054;2022-07-18T10:13:36;2.47;;;1.05;;
35907;SDS011;22003;50.320;8.054;2022-07-18T10:16:03;5.70;;;1.10;;
35907;SDS011;22003;50.320;8.054;2022-07-18T10:18:29;3.42;;;1.17;;
35907;SDS011;22003;50.320;8.054;2022-07-18T10:21:14;4.32;;;1.30;;
35907;SDS011;22003;50.320;8.054;2022-07-18T10:23:45;4.10;;;1.38;;
35907;SDS011;22003;50.320;8.054;2022-07-18T10:29:24;1.30;;;0.93;;
35907;SDS011;22003;50.320;8.054;2022-07-18T10:31:33;2.22;;;1.10;;
35907;SDS011;22003;50.320;8.054;2022-07-18T10:36:37;1.52;;;0.90;;
35907;SDS011;22003;50.320;8.054;2022-07-18T10:39:33;1.17;;;0.80;;
35907;SDS011;22003;50.320;8.054;2022-07-18T10:49:59;2.17;;;0.95;;
35907;SDS011;22003;50.320;8.054;2022-07-18T10:52:58;3.78;;;0.95;;
35907;SDS011;22003;50.320;8.054;2022-07-18T10:57:34;1.75;;;0.93;;
35907;SDS011;22003;50.320;8.054;2022-07-18T11:00:06;3.75;;;0.90;;
35907;SDS011;22003;50.320;8.054;2022-07-18T11:02:36;2.17;;;0.90;;
35907;SDS011;22003;50.320;8.054;2022-07-18T11:05:02;3.20;;;1.00;;
35907;SDS011;22003;50.320;8.054;2022-07-18T11:16:11;2.47;;;0.80;;
35907;SDS011;22003;50.320;8.054;2022-07-18T11:23:47;1.98;;;0.70;;
35907;SDS011;22003;50.320;8.054;2022-07-18T11:26:19;2.72;;;0.55;;
35907;SDS011;22003;50.320;8.054;2022-07-18T11:28:47;2.92;;;1.33;;
35907;SDS011;22003;50.320;8.054;2022-07-18T11:31:16;1.58;;;0.80;;
35907;SDS011;22003;50.320;8.054;2022-07-18T11:33:46;2.35;;;0.90;;
35907;SDS011;22003;50.320;8.054;2022-07-18T11:36:17;1.02;;;0.60;;
35907;SDS011;22003;50.320;8.054;2022-07-18T11:38:57;3.50;;;0.70;;
35907;SDS011;22003;50.320;8.054;2022-07-18T11:41:24;3.35;;;0.80;;
35907;SDS011;22003;50.320;8.054;2022-07-18T11:43:50;1.10;;;0.82;;
35907;SDS011;22003;50.320;8.054;2022-07-18T11:46:18;1.10;;;0.82;;
35907;SDS011;22003;50.320;8.054;2022-07-18T11:48:45;2.90;;;0.70;;
35907;SDS011;22003;50.320;8.054;2022-07-18T11:51:14;1.38;;;0.82;;
35907;SDS011;22003;50.320;8.054;2022-07-18T11:53:44;2.13;;;0.70;;
35907;SDS011;22003;50.320;8.054;2022-07-18T11:56:11;1.35;;;0.98;;
35907;SDS011;22003;50.320;8.054;2022-07-18T11:58:37;1.37;;;1.20;;
35907;SDS011;22003;50.320;8.054;2022-07-18T12:01:04;1.20;;;0.70;;
35907;SDS011;22003;50.320;8.054;2022-07-18T12:03:30;1.23;;;0.80;;
35907;SDS011;22003;50.320;8.054;2022-07-18T12:05:58;2.38;;;1.23;;
35907;SDS011;22003;50.320;8.054;2022-07-18T12:08:33;1.27;;;1.05;;
35907;SDS011;22003;50.320;8.054;2022-07-18T12:13:49;2.08;;;0.70;;
35907;SDS011;22003;50.320;8.054;2022-07-18T12:16:31;1.85;;;0.90;;
35907;SDS011;22003;50.320;8.054;2022-07-18T12:18:58;3.05;;;0.75;;
35907;SDS011;22003;50.320;8.054;2022-07-18T12:26:43;1.55;;;0.85;;
35907;SDS011;22003;50.320;8.054;2022-07-18T12:29:08;3.33;;;1.27;;
35907;SDS011;22003;50.320;8.054;2022-07-18T12:34:11;3.45;;;1.00;;
35907;SDS011;22003;50.320;8.054;2022-07-18T12:36:51;5.68;;;1.00;;
35907;SDS011;22003;50.320;8.054;2022-07-18T12:39:29;2.85;;;1.35;;
35907;SDS011;22003;50.320;8.054;2022-07-18T12:41:55;3.22;;;1.40;;
35907;SDS011;22003;50.320;8.054;2022-07-18T12:44:21;1.05;;;0.70;;
35907;SDS011;22003;50.320;8.054;2022-07-18T12:46:47;2.85;;;0.90;;
35907;SDS011;22003;50.320;8.054;2022-07-18T12:49:13;3.40;;;1.08;;
35907;SDS011;22003;50.320;8.054;2022-07-18T12:51:38;1.83;;;1.00;;
35907;SDS011;22003;50.320;8.054;2022-07-18T12:54:03;1.45;;;0.80;;
35907;SDS011;22003;50.320;8.054;2022-07-18T12:56:29;4.43;;;1.05;;
35907;SDS011;22003;50.320;8.054;2022-07-18T12:58:54;1.25;;;0.90;;
35907;SDS011;22003;50.320;8.054;2022-07-18T13:01:19;1.35;;;0.82;;
35907;SDS011;22003;50.320;8.054;2022-07-18T13:03:45;1.15;;;0.95;;
35907;SDS011;22003;50.320;8.054;2022-07-18T13:06:10;5.10;;;1.38;;
35907;SDS011;22003;50.320;8.054;2022-07-18T13:08:36;3.78;;;1.10;;
35907;SDS011;22003;50.320;8.054;2022-07-18T13:11:01;1.42;;;1.00;;
35907;SDS011;22003;50.320;8.054;2022-07-18T13:13:27;2.70;;;1.00;;
35907;SDS011;22003;50.320;8.054;2022-07-18T13:15:52;3.33;;;1.17;;
35907;SDS011;22003;50.320;8.054;2022-07-18T13:18:18;3.42;;;1.10;;
35907;SDS011;22003;50.320;8.054;2022-07-18T13:20:43;2.30;;;1.13;;
35907;SDS011;22003;50.320;8.054;2022-07-18T13:23:09;3.20;;;1.70;;
35907;SDS011;22003;50.320;8.054;2022-07-18T13:25:36;2.28;;;0.82;;
35907;SDS011;22003;50.320;8.054;2022-07-18T13:28:01;2.28;;;1.00;;
35907;SDS011;22003;50.320;8.054;2022-07-18T13:30:26;2.38;;;1.02;;
35907;SDS011;22003;50.320;8.054;2022-07-18T13:32:52;3.22;;;0.88;;
35907;SDS011;22003;50.320;8.054;2022-07-18T13:35:17;8.25;;;0.82;;
35907;SDS011;22003;50.320;8.054;2022-07-18T13:37:43;4.80;;;1.30;;
35907;SDS011;22003;50.320;8.054;2022-07-18T13:40:08;2.83;;;1.33;;
35907;SDS011;22003;50.320;8.054;2022-07-18T13:42:35;1.13;;;0.80;;
35907;SDS011;22003;50.320;8.054;2022-07-18T13:45:01;0.98;;;0.90;;
35907;SDS011;22003;50.320;8.054;2022-07-18T13:47:27;2.50;;;1.23;;
35907;SDS011;22003;50.320;8.054;2022-07-18T13:49:52;1.42;;;1.33;;
35907;SDS011;22003;50.320;8.054;2022-07-18T13:52:17;3.50;;;1.00;;
35907;SDS011;22003;50.320;8.054;2022-07-18T13:54:43;2.67;;;1.10;;
35907;SDS011;22003;50.320;8.054;2022-07-18T13:57:09;3.38;;;1.05;;
35907;SDS011;22003;50.320;8.054;2022-07-18T13:59:34;1.83;;;1.05;;
35907;SDS011;22003;50.320;8.054;2022-07-18T14:01:59;4.95;;;1.35;;
35907;SDS011;22003;50.320;8.054;2022-07-18T14:04:25;2.35;;;1.10;;
35907;SDS011;22003;50.320;8.054;2022-07-18T14:06:50;1.92;;;0.95;;
35907;SDS011;22003;50.320;8.054;2022-07-18T14:09:16;1.63;;;1.10;;
35907;SDS011;22003;50.320;8.054;2022-07-18T14:11:41;1.35;;;0.85;;
35907;SDS011;22003;50.320;8.054;2022-07-18T14:14:06;2.40;;;1.05;;
35907;SDS011;22003;50.320;8.054;2022-07-18T14:16:32;2.67;;;1.30;;
35907;SDS011;22003;50.320;8.054;2022-07-18T14:18:57;1.63;;;0.80;;
35907;SDS011;22003;50.320;8.054;2022-07-18T14:21:23;0.77;;;0.77;;
35907;SDS011;22003;50.320;8.054;2022-07-18T14:23:48;2.55;;;1.00;;
35907;SDS011;22003;50.320;8.054;2022-07-18T14:26:14;2.33;;;0.98;;
35907;SDS011;22003;50.320;8.054;2022-07-18T14:28:39;1.80;;;1.17;;
35907;SDS011;22003;50.320;8.054;2022-07-18T14:31:05;2.55;;;1.20;;
35907;SDS011;22003;50.320;8.054;2022-07-18T14:33:30;2.53;;;1.00;;
35907;SDS011;22003;50.320;8.054;2022-07-18T14:35:56;2.03;;;1.00;;
35907;SDS011;22003;50.320;8.054;2022-07-18T14:38:21;1.95;;;1.50;;
35907;SDS011;22003;50.320;8.054;2022-07-18T14:40:47;2.13;;;1.10;;
35907;SDS011;22003;50.320;8.054;2022-07-18T14:43:12;2.28;;;1.00;;
35907;SDS011;22003;50.320;8.054;2022-07-18T14:45:37;2.97;;;1.23;;
35907;SDS011;22003;50.320;8.054;2022-07-18T14:48:03;0.90;;;0.80;;
35907;SDS011;22003;50.320;8.054;2022-07-18T14:50:28;2.03;;;1.25;;
35907;SDS011;22003;50.320;8.054;2022-07-18T14:52:54;3.13;;;1.97;;
35907;SDS011;22003;50.320;8.054;2022-07-18T14:55:19;1.30;;;1.10;;
35907;SDS011;22003;50.320;8.054;2022-07-18T14:57:44;1.92;;;1.30;;
35907;SDS011;22003;50.320;8.054;2022-07-18T15:00:10;2.78;;;1.10;;
35907;SDS011;22003;50.320;8.054;2022-07-18T15:02:36;4.07;;;0.98;;
35907;SDS011;22003;50.320;8.054;2022-07-18T15:05:03;5.75;;;1.48;;
35907;SDS011;22003;50.320;8.054;2022-07-18T15:07:29;6.55;;;1.70;;
35907;SDS011;22003;50.320;8.054;2022-07-18T15:09:55;1.88;;;1.33;;
35907;SDS011;22003;50.320;8.054;2022-07-18T15:12:20;2.22;;;1.20;;
35907;SDS011;22003;50.320;8.054;2022-07-18T15:14:45;1.58;;;1.02;;
35907;SDS011;22003;50.320;8.054;2022-07-18T15:17:11;3.28;;;1.30;;
35907;SDS011;22003;50.320;8.054;2022-07-18T15:19:36;2.77;;;1.03;;
35907;SDS011;22003;50.320;8.054;2022-07-18T15:22:01;1.58;;;1.00;;
35907;SDS011;22003;50.320;8.054;2022-07-18T15:24:29;1.80;;;1.10;;
35907;SDS011;22003;50.320;8.054;2022-07-18T15:26:55;5.50;;;1.52;;
35907;SDS011;22003;50.320;8.054;2022-07-18T15:29:20;2.20;;;1.27;;
35907;SDS011;22003;50.320;8.054;2022-07-18T15:31:45;1.85;;;1.63;;
35907;SDS011;22003;50.320;8.054;2022-07-18T15:34:11;2.13;;;1.10;;
35907;SDS011;22003;50.320;8.054;2022-07-18T15:36:36;1.95;;;1.08;;
35907;SDS011;22003;50.320;8.054;2022-07-18T15:39:01;4.90;;;1.70;;
35907;SDS011;22003;50.320;8.054;2022-07-18T15:41:28;2.25;;;1.45;;
35907;SDS011;22003;50.320;8.054;2022-07-18T15:43:54;3.30;;;1.20;;
35907;SDS011;22003;50.320;8.054;2022-07-18T15:46:19;4.53;;;1.50;;
35907;SDS011;22003;50.320;8.054;2022-07-18T15:48:47;1.90;;;1.00;;
35907;SDS011;22003;50.320;8.054;2022-07-18T15:51:13;1.52;;;1.10;;
35907;SDS011;22003;50.320;8.054;2022-07-18T15:53:38;7.65;;;1.13;;
35907;SDS011;22003;50.320;8.054;2022-07-18T15:56:04;3.53;;;0.97;;
35907;SDS011;22003;50.320;8.054;2022-07-18T15:58:30;2.08;;;1.23;;
35907;SDS011;22003;50.320;8.054;2022-07-18T16:00:56;1.63;;;1.38;;
35907;SDS011;22003;50.320;8.054;2022-07-18T16:03:22;1.92;;;1.00;;
35907;SDS011;22003;50.320;8.054;2022-07-18T16:05:48;4.05;;;1.40;;
35907;SDS011;22003;50.320;8.054;2022-07-18T16:08:13;3.83;;;1.23;;
35907;SDS011;22003;50.320;8.054;2022-07-18T16:10:39;2.60;;;1.00;;
35907;SDS011;22003;50.320;8.054;2022-07-18T16:13:04;2.73;;;1.37;;
35907;SDS011;22003;50.320;8.054;2022-07-18T16:15:30;1.40;;;1.07;;
35907;SDS011;22003;50.320;8.054;2022-07-18T16:17:55;2.40;;;1.30;;
35907;SDS011;22003;50.320;8.054;2022-07-18T16:20:20;4.87;;;1.33;;
35907;SDS011;22003;50.320;8.054;2022-07-18T16:22:46;1.97;;;1.20;;
35907;SDS011;22003;50.320;8.054;2022-07-18T16:25:11;2.93;;;1.07;;
35907;SDS011;22003;50.320;8.054;2022-07-18T16:27:37;1.13;;;0.90;;
35907;SDS011;22003;50.320;8.054;2022-07-18T16:30:03;2.43;;;1.00;;
35907;SDS011;22003;50.320;8.054;2022-07-18T16:32:29;2.35;;;1.30;;
35907;SDS011;22003;50.320;8.054;2022-07-18T16:34:55;2.13;;;1.40;;
35907;SDS011;22003;50.320;8.054;2022-07-18T16:37:21;2.53;;;1.10;;
35907;SDS011;22003;50.320;8.054;2022-07-18T16:39:46;1.57;;;0.90;;
35907;SDS011;22003;50.320;8.054;2022-07-18T16:42:12;2.37;;;1.20;;
35907;SDS011;22003;50.320;8.054;2022-07-18T16:44:37;5.40;;;1.43;;
35907;SDS011;22003;50.320;8.054;2022-07-18T16:47:02;1.03;;;0.93;;
35907;SDS011;22003;50.320;8.054;2022-07-18T16:49:28;1.50;;;1.13;;
35907;SDS011;22003;50.320;8.054;2022-07-18T16:51:54;4.60;;;0.83;;
35907;SDS011;22003;50.320;8.054;2022-07-18T16:54:21;3.45;;;1.30;;
35907;SDS011;22003;50.320;8.054;2022-07-18T16:56:46;2.77;;;1.00;;
35907;SDS011;22003;50.320;8.054;2022-07-18T16:59:12;3.70;;;1.10;;
35907;SDS011;22003;50.320;8.054;2022-07-18T17:01:37;1.00;;;1.00;;
35907;SDS011;22003;50.320;8.054;2022-07-18T17:06:29;4.63;;;1.27;;
35907;SDS011;22003;50.320;8.054;2022-07-18T17:08:54;2.87;;;0.80;;
35907;SDS011;22003;50.320;8.054;2022-07-18T17:11:20;1.40;;;0.90;;
35907;SDS011;22003;50.320;8.054;2022-07-18T17:13:47;5.47;;;1.15;;
35907;SDS011;22003;50.320;8.054;2022-07-18T17:16:13;2.42;;;1.30;;
35907;SDS011;22003;50.320;8.054;2022-07-18T17:18:38;2.03;;;1.20;;
35907;SDS011;22003;50.320;8.054;2022-07-18T17:21:04;4.53;;;1.30;;
35907;SDS011;22003;50.320;8.054;2022-07-18T17:23:30;1.55;;;1.30;;
35907;SDS011;22003;50.320;8.054;2022-07-18T17:25:56;2.13;;;1.33;;
35907;SDS011;22003;50.320;8.054;2022-07-18T17:28:22;1.97;;;1.10;;
35907;SDS011;22003;50.320;8.054;2022-07-18T17:30:47;3.00;;;1.00;;
35907;SDS011;22003;50.320;8.054;2022-07-18T17:33:13;5.30;;;1.17;;
35907;SDS011;22003;50.320;8.054;2022-07-18T17:35:40;1.48;;;1.10;;
35907;SDS011;22003;50.320;8.054;2022-07-18T17:38:06;3.42;;;1.00;;
35907;SDS011;22003;50.320;8.054;2022-07-18T17:40:33;4.95;;;1.00;;
35907;SDS011;22003;50.320;8.054;2022-07-18T17:42:59;2.17;;;1.10;;
35907;SDS011;22003;50.320;8.054;2022-07-18T17:45:25;2.77;;;1.27;;
35907;SDS011;22003;50.320;8.054;2022-07-18T17:47:51;6.22;;;1.30;;
35907;SDS011;22003;50.320;8.054;2022-07-18T17:50:18;2.08;;;1.13;;
35907;SDS011;22003;50.320;8.054;2022-07-18T17:52:43;4.43;;;1.33;;
35907;SDS011;22003;50.320;8.054;2022-07-18T17:55:09;2.03;;;1.20;;
35907;SDS011;22003;50.320;8.054;2022-07-18T17:57:34;6.95;;;1.33;;
35907;SDS011;22003;50.320;8.054;2022-07-18T18:00:00;3.03;;;0.98;;
35907;SDS011;22003;50.320;8.054;2022-07-18T18:02:26;5.95;;;1.50;;
35907;SDS011;22003;50.320;8.054;2022-07-18T18:04:51;2.88;;;1.20;;
35907;SDS011;22003;50.320;8.054;2022-07-18T18:07:17;3.53;;;1.40;;
35907;SDS011;22003;50.320;8.054;2022-07-18T18:09:42;3.17;;;1.50;;
35907;SDS011;22003;50.320;8.054;2022-07-18T18:12:07;3.13;;;1.20;;
35907;SDS011;22003;50.320;8.054;2022-07-18T18:14:33;6.60;;;1.80;;
35907;SDS011;22003;50.320;8.054;2022-07-18T18:16:59;12.32;;;2.03;;
35907;SDS011;22003;50.320;8.054;2022-07-18T18:19:25;7.28;;;1.73;;
35907;SDS011;22003;50.320;8.054;2022-07-18T18:21:51;7.43;;;1.30;;
35907;SDS011;22003;50.320;8.054;2022-07-18T18:24:17;5.97;;;1.40;;
35907;SDS011;22003;50.320;8.054;2022-07-18T18:26:42;4.55;;;1.25;;
35907;SDS011;22003;50.320;8.054;2022-07-18T18:29:08;4.93;;;1.50;;
35907;SDS011;22003;50.320;8.054;2022-07-18T18:31:34;3.92;;;2.00;;
35907;SDS011;22003;50.320;8.054;2022-07-18T18:33:59;5.25;;;1.15;;
35907;SDS011;22003;50.320;8.054;2022-07-18T18:36:24;2.30;;;1.05;;
35907;SDS011;22003;50.320;8.054;2022-07-18T18:39:10;2.78;;;1.23;;
35907;SDS011;22003;50.320;8.054;2022-07-18T18:41:35;4.65;;;1.55;;
35907;SDS011;22003;50.320;8.054;2022-07-18T18:44:01;2.67;;;1.70;;
35907;SDS011;22003;50.320;8.054;2022-07-18T18:46:26;8.57;;;2.28;;
35907;SDS011;22003;50.320;8.054;2022-07-18T18:48:52;4.45;;;1.50;;
35907;SDS011;22003;50.320;8.054;2022-07-18T18:51:17;1.60;;;1.27;;
35907;SDS011;22003;50.320;8.054;2022-07-18T18:53:42;2.75;;;1.30;;
35907;SDS011;22003;50.320;8.054;2022-07-18T18:56:07;2.95;;;1.15;;
35907;SDS011;22003;50.320;8.054;2022-07-18T18:58:33;1.42;;;1.33;;
35907;SDS011;22003;50.320;8.054;2022-07-18T19:00:58;3.92;;;1.63;;
35907;SDS011;22003;50.320;8.054;2022-07-18T19:03:23;4.95;;;1.55;;
35907;SDS011;22003;50.320;8.054;2022-07-18T19:05:49;8.25;;;1.60;;
35907;SDS011;22003;50.320;8.054;2022-07-18T19:08:15;3.17;;;1.42;;
35907;SDS011;22003;50.320;8.054;2022-07-18T19:10:40;3.00;;;1.80;;
35907;SDS011;22003;50.320;8.054;2022-07-18T19:13:05;6.38;;;1.58;;
35907;SDS011;22003;50.320;8.054;2022-07-18T19:15:30;4.80;;;1.38;;
35907;SDS011;22003;50.320;8.054;2022-07-18T19:17:56;4.45;;;1.55;;
35907;SDS011;22003;50.320;8.054;2022-07-18T19:20:21;1.92;;;1.30;;
35907;SDS011;22003;50.320;8.054;2022-07-18T19:22:47;2.97;;;1.50;;
35907;SDS011;22003;50.320;8.054;2022-07-18T19:25:12;7.68;;;2.13;;
35907;SDS011;22003;50.320;8.054;2022-07-18T19:27:39;3.28;;;1.60;;
35907;SDS011;22003;50.320;8.054;2022-07-18T19:30:04;3.90;;;1.38;;
35907;SDS011;22003;50.320;8.054;2022-07-18T19:32:30;5.82;;;1.80;;